Time;durP1;ratioP1;P1;durP2;ratioP2;P2;SDS_P1;SDS_P2;PMS_P1;PMS_P2;Temp;Humidity;BMP_temperature;BMP_pressure;BME280_temperature;BME280_humidity;BME280_pressure;Samples;Min_cycle;Max_cycle;Signal;HPM_P1;HPM_P2
2022/02/09 00:02:50;;;;;;;28.95;11.95;;;;;;;0.16;85.37;99085.80;1633637;87;20895;-72
2022/02/09 00:10:24;;;;;;;26.42;10.72;;;;;;;0.18;85.17;99090.95;1633965;87;20900;-72
2022/02/09 00:13:48;;;;;;;24.05;9.58;;;;;;;0.18;85.21;99090.42;1633810;87;20911;-74
2022/02/09 00:26:43;;;;;;;23.18;9.20;;;;;;;0.20;84.99;99071.19;1628680;87;21007;-72
2022/02/09 00:31:39;;;;;;;25.37;9.40;;;;;;;0.18;85.04;99070.09;1618899;88;21827;-73
2022/02/09 00:39:39;;;;;;;20.82;10.08;;;;;;;0.16;85.20;99059.23;1668820;86;20911;-72
2022/02/09 00:44:49;;;;;;;19.12;9.50;;;;;;;0.14;85.54;99058.14;1668824;85;21108;-72
2022/02/09 01:56:04;;;;;;;23.83;10.18;;;;;;;0.17;92.46;99008.03;1669136;84;20877;-73
2022/02/09 01:58:35;;;;;;;19.57;9.65;;;;;;;0.16;92.74;99003.14;1702761;84;20948;-73
2022/02/09 02:01:02;;;;;;;21.93;9.15;;;;;;;0.16;93.02;99009.09;1702561;84;20937;-74
2022/02/09 02:03:30;;;;;;;20.62;9.00;;;;;;;0.17;93.21;99012.89;1680804;84;21056;-73
2022/02/09 02:05:59;;;;;;;23.87;9.03;;;;;;;0.19;93.38;99006.67;1702518;83;20977;-73
2022/02/09 02:08:28;;;;;;;25.52;9.58;;;;;;;0.20;93.48;99005.62;1702504;83;20985;-72
2022/02/09 02:11:06;;;;;;;30.70;10.23;;;;;;;0.21;93.59;99008.59;1702597;84;21023;-73
2022/02/09 02:14:00;;;;;;;18.10;8.70;;;;;;;0.21;93.78;99003.17;1701455;84;21521;-72
2022/02/09 02:16:27;;;;;;;23.05;8.80;;;;;;;0.22;93.81;99002.64;1700657;84;20997;-73
2022/02/09 02:19:01;;;;;;;18.10;8.60;;;;;;;0.21;94.01;98999.11;1702460;84;21134;-72
2022/02/09 02:24:56;;;;;;;18.50;9.00;;;;;;;0.23;94.27;98999.66;1729391;82;21026;-72
2022/02/09 02:32:38;;;;;;;30.05;10.68;;;;;;;0.29;94.64;98999.69;1642417;87;21099;-72
2022/02/09 02:59:29;;;;;;;34.60;15.30;;;;;;;0.38;95.34;99009.45;1729244;83;21603;-72
2022/02/09 03:13:13;;;;;;;20.45;9.60;;;;;;;0.41;95.73;99012.46;1729379;83;21019;-71
2022/02/09 03:20:47;;;;;;;19.70;8.73;;;;;;;0.40;95.97;99013.55;1729449;83;20869;-72
2022/02/09 03:42:35;;;;;;;23.75;11.95;;;;;;;0.43;97.08;99029.81;1701145;83;20941;-71
2022/02/09 03:50:42;;;;;;;28.70;13.80;;;;;;;0.43;98.85;99029.28;1701235;83;20894;-71
2022/02/09 03:53:27;;;;;;;25.30;12.85;;;;;;;0.43;99.07;99024.39;1696580;84;21143;-69
2022/02/09 03:58:24;;;;;;;25.30;12.40;;;;;;;0.43;99.28;99027.92;1700995;84;20893;-71
2022/02/09 04:00:50;;;;;;;26.87;11.12;;;;;;;0.44;99.27;99032.29;1701239;83;20954;-70
2022/02/09 04:03:21;;;;;;;21.80;10.50;;;;;;;0.46;99.38;99030.11;1700940;84;20901;-72
2022/02/09 04:05:51;;;;;;;22.98;10.18;;;;;;;0.46;99.28;99037.45;1701015;84;21142;-71
2022/02/09 04:08:27;;;;;;;17.77;9.90;;;;;;;0.47;99.26;99035.00;1701143;84;20905;-71
2022/02/09 04:11:01;;;;;;;16.40;8.80;;;;;;;0.48;99.32;99036.09;1701297;83;20944;-72
2022/02/09 04:13:40;;;;;;;18.37;8.83;;;;;;;0.51;99.42;99045.60;1701443;83;20933;-71
2022/02/09 04:16:06;;;;;;;21.07;9.50;;;;;;;0.52;99.38;99040.45;1700270;84;21032;-73
2022/02/09 04:41:05;;;;;;;17.87;8.73;;;;;;;0.60;99.79;99048.59;1719076;83;20944;-73
2022/02/09 04:51:21;;;;;;;14.95;8.48;;;;;;;0.60;100.00;99058.09;1719271;83;20889;-71
2022/02/09 04:59:31;;;;;;;16.90;8.60;;;;;;;0.62;100.00;99069.49;1719019;83;21139;-70
2022/02/09 05:02:34;;;;;;;17.52;9.03;;;;;;;0.64;100.00;99073.30;1719272;83;20916;-72
2022/02/09 05:05:02;;;;;;;12.93;8.18;;;;;;;0.66;100.00;99074.67;1719003;83;21572;-72
2022/02/09 05:18:48;;;;;;;19.30;9.73;;;;;;;0.78;100.00;99093.97;1719083;83;20976;-72
2022/02/09 05:26:09;;;;;;;17.48;9.35;;;;;;;0.83;100.00;99102.96;1702874;83;21422;-71
2022/02/09 05:28:40;;;;;;;18.25;9.90;;;;;;;0.84;100.00;99107.82;1719484;83;21775;-71
2022/02/09 05:31:08;;;;;;;16.73;9.70;;;;;;;0.85;100.00;99111.63;1719138;83;21075;-73
2022/02/09 05:33:36;;;;;;;17.95;10.23;;;;;;;0.87;100.00;99112.71;1719364;83;20991;-73
2022/02/09 05:36:04;;;;;;;15.50;9.48;;;;;;;0.90;100.00;99116.28;1719250;82;21031;-73
2022/02/09 05:38:33;;;;;;;14.00;8.68;;;;;;;0.95;100.00;99119.55;1719096;83;21161;-73
2022/02/09 05:41:02;;;;;;;15.63;9.05;;;;;;;0.96;100.00;99126.06;1719207;83;20953;-71
2022/02/09 05:43:31;;;;;;;19.62;8.38;;;;;;;0.97;100.00;99126.88;1719192;83;21008;-72
2022/02/09 06:41:20;;;;;;;23.70;11.28;;;;;;;1.47;100.00;99189.48;1890421;76;23040;-72
2022/02/09 06:43:53;;;;;;;19.92;9.93;;;;;;;1.48;100.00;99192.45;1828515;77;20841;-72
2022/02/09 06:46:23;;;;;;;24.18;11.33;;;;;;;1.51;100.00;99208.21;1861313;77;21768;-73
2022/02/09 06:48:55;;;;;;;17.32;10.32;;;;;;;1.56;100.00;99208.23;1861151;77;21392;-72
2022/02/09 06:51:26;;;;;;;17.17;8.93;;;;;;;1.62;100.00;99214.50;1861430;77;20951;-74
2022/02/09 06:54:02;;;;;;;22.58;9.98;;;;;;;1.65;100.00;99218.03;1860567;77;20903;-74
2022/02/09 06:59:29;;;;;;;16.87;8.73;;;;;;;1.67;100.00;99228.09;1832889;77;21224;-73
2022/02/09 07:02:05;;;;;;;15.58;7.80;;;;;;;1.70;100.00;99227.56;1861310;77;21402;-73
2022/02/09 07:04:36;;;;;;;16.73;8.03;;;;;;;1.72;100.00;99229.47;1861130;77;20917;-73
2022/02/09 07:07:06;;;;;;;25.75;8.93;;;;;;;1.74;100.00;99238.14;1828327;77;20932;-73
2022/02/09 07:09:37;;;;;;;17.48;9.55;;;;;;;1.76;100.00;99227.01;1861274;77;20947;-73
2022/02/09 07:12:07;;;;;;;17.73;10.28;;;;;;;1.77;100.00;99241.71;1861090;77;21137;-73
2022/02/09 07:14:35;;;;;;;23.45;9.78;;;;;;;1.79;100.00;99247.67;1860973;77;20935;-73
2022/02/09 07:17:04;;;;;;;21.05;8.73;;;;;;;1.84;100.00;99249.61;1828391;77;21524;-74
2022/02/09 07:19:33;;;;;;;24.63;11.45;;;;;;;1.89;100.00;99251.52;1861260;77;21019;-73
2022/02/09 07:22:01;;;;;;;18.67;9.05;;;;;;;1.91;100.00;99251.50;1861002;77;21499;-73
2022/02/09 07:24:31;;;;;;;18.62;8.73;;;;;;;1.94;100.00;99250.95;1861307;77;21107;-71
2022/02/09 07:27:25;;;;;;;25.02;11.25;;;;;;;1.99;100.00;99252.89;1859838;77;21528;-67
2022/02/09 07:29:42;;;;;;;19.45;9.18;;;;;;;2.00;100.00;99246.36;1857949;77;20958;-72
2022/02/09 07:32:08;;;;;;;22.77;10.70;;;;;;;2.02;100.00;99254.24;1861021;77;20873;-73
2022/02/09 07:34:36;;;;;;;29.25;11.25;;;;;;;2.01;100.00;99252.09;1861191;77;20880;-74
2022/02/09 07:37:03;;;;;;;14.43;7.03;;;;;;;2.02;100.00;99250.16;1848563;77;21193;-73
2022/02/09 07:39:32;;;;;;;28.07;10.82;;;;;;;2.02;100.00;99248.80;1841673;77;21308;-71
2022/02/09 07:42:08;;;;;;;21.12;8.98;;;;;;;2.03;100.00;99255.89;1841784;77;21026;-73
2022/02/09 07:44:52;;;;;;;15.68;6.40;;;;;;;2.03;100.00;99257.25;1841238;77;20910;-73
2022/02/09 07:50:18;;;;;;;24.43;7.72;;;;;;;2.08;100.00;99264.59;1841842;78;21529;-71
2022/02/09 07:52:26;;;;;;;17.30;6.58;;;;;;;2.11;100.00;99267.59;1836696;78;21435;-72
2022/02/09 07:54:55;;;;;;;20.30;8.08;;;;;;;2.14;99.67;99264.86;1812452;78;20898;-73
2022/02/09 07:57:22;;;;;;;12.65;6.05;;;;;;;2.16;99.71;99266.23;1841181;78;20942;-72
2022/02/09 07:59:49;;;;;;;15.55;5.97;;;;;;;2.21;99.50;99265.42;1810737;77;20898;-73
2022/02/09 08:02:15;;;;;;;19.20;7.72;;;;;;;2.22;99.23;99273.05;1841127;78;21115;-73
2022/02/09 08:04:46;;;;;;;23.85;9.50;;;;;;;2.25;99.41;99267.86;1841065;77;20911;-71
2022/02/09 08:07:13;;;;;;;16.12;6.67;;;;;;;2.31;99.38;99271.41;1841200;77;20994;-73
2022/02/09 08:09:42;;;;;;;21.15;7.12;;;;;;;2.36;99.10;99280.93;1841207;78;20911;-72
2022/02/09 08:20:28;;;;;;;15.60;6.28;;;;;;;2.43;97.79;99290.19;1841115;78;20961;-74
2022/02/09 08:33:44;;;;;;;11.40;4.28;;;;;;;2.51;96.41;99296.44;1841413;77;21043;-72
2022/02/09 08:36:11;;;;;;;12.70;4.55;;;;;;;2.52;96.19;99300.81;1839994;78;20998;-72
2022/02/09 08:38:42;;;;;;;10.68;4.45;;;;;;;2.54;95.84;99299.17;1841095;78;21539;-72
2022/02/09 08:41:07;;;;;;;14.93;5.12;;;;;;;2.59;95.70;99307.87;1827615;77;21087;-71
2022/02/09 08:43:34;;;;;;;14.73;4.17;;;;;;;2.62;95.78;99306.79;1821186;78;20951;-73
2022/02/09 08:46:00;;;;;;;15.18;4.60;;;;;;;2.66;94.96;99320.11;1793678;78;21006;-73
2022/02/09 08:48:27;;;;;;;12.15;5.17;;;;;;;2.70;94.09;99323.10;1821190;78;20876;-72
2022/02/09 08:50:53;;;;;;;14.45;4.17;;;;;;;2.71;94.32;99315.77;1821730;78;20979;-71
2022/02/09 08:53:23;;;;;;;8.03;3.20;;;;;;;2.74;93.99;99328.28;1821232;78;21149;-74
2022/02/09 08:55:49;;;;;;;12.95;3.98;;;;;;;2.77;93.24;99332.35;1821613;78;20816;-74
2022/02/09 08:58:19;;;;;;;8.48;3.45;;;;;;;2.74;93.02;99332.90;1821272;78;20948;-73
2022/02/09 09:00:44;;;;;;;12.07;3.87;;;;;;;2.75;92.27;99345.41;1821373;78;21487;-70
2022/02/09 09:05:46;;;;;;;12.75;4.15;;;;;;;2.77;91.55;99337.26;1821175;78;21089;-73
2022/02/09 10:01:17;;;;;;;12.45;4.00;;;;;;;3.58;83.02;99354.84;1820986;78;21236;-75
2022/02/09 10:03:06;;;;;;;6.97;2.47;;;;;;;3.53;82.74;99357.59;1831309;78;21057;-74
2022/02/09 10:32:24;;;;;;;8.13;3.22;;;;;;;3.56;78.75;99361.11;1819499;78;21060;-68
2022/02/09 10:34:35;;;;;;;11.53;3.30;;;;;;;3.56;78.71;99366.56;1820483;78;21550;-66
2022/02/09 10:37:02;;;;;;;11.48;3.15;;;;;;;3.56;78.65;99365.73;1760171;80;21086;-72
2022/02/09 10:39:46;;;;;;;10.43;3.17;;;;;;;3.62;78.72;99379.07;1732911;82;21012;-71
2022/02/09 10:42:20;;;;;;;9.40;2.72;;;;;;;3.69;77.95;99371.14;1754364;79;21953;-72
2022/02/09 10:44:51;;;;;;;11.63;3.55;;;;;;;3.81;77.98;99373.55;1751876;81;21031;-70
2022/02/09 10:47:36;;;;;;;12.53;3.95;;;;;;;3.89;77.18;99378.42;1759764;81;21011;-71
2022/02/09 10:50:18;;;;;;;8.00;3.10;;;;;;;4.05;77.60;99379.19;1745353;81;21496;-72
2022/02/09 10:52:53;;;;;;;10.08;3.47;;;;;;;4.24;76.98;99377.19;1747359;81;21488;-71
2022/02/09 10:55:36;;;;;;;10.35;3.00;;;;;;;4.37;75.94;99378.47;1759594;80;21527;-72
2022/02/09 10:58:07;;;;;;;;;;;;;;;4.44;76.04;99383.08;1749795;81;21004;-73
2022/02/09 11:00:35;;;;;;;18.00;5.62;;;;;;;4.59;74.89;99387.61;1758506;81;20167;-73
2022/02/09 11:03:05;;;;;;;9.83;3.25;;;;;;;4.69;75.61;99384.56;1756768;81;21004;-72
2022/02/09 11:05:38;;;;;;;10.25;3.15;;;;;;;4.83;72.97;99393.73;1758370;81;21098;-71
2022/02/09 11:08:05;;;;;;;10.03;3.60;;;;;;;4.78;73.40;99397.86;1760391;80;21676;-71
2022/02/09 11:10:32;;;;;;;11.57;3.55;;;;;;;4.72;72.97;99399.00;1757980;81;21004;-72
2022/02/09 11:12:59;;;;;;;14.00;4.00;;;;;;;4.69;72.74;99400.94;1757297;81;21023;-73
2022/02/09 11:15:26;;;;;;;16.05;3.77;;;;;;;4.65;73.49;99392.50;1761112;80;21666;-71
2022/02/09 11:17:54;;;;;;;8.78;3.58;;;;;;;4.67;72.63;99395.77;1730226;81;21042;-72
2022/02/09 11:20:27;;;;;;;8.73;3.27;;;;;;;4.65;72.74;99402.05;1755709;81;21889;-68
2022/02/09 11:22:49;;;;;;;6.97;2.87;;;;;;;4.59;71.91;99398.53;1758511;81;20988;-70
2022/02/09 11:25:32;;;;;;;11.33;3.70;;;;;;;4.53;72.20;99401.03;1759206;80;21043;-71
2022/02/09 11:28:28;;;;;;;10.72;2.60;;;;;;;4.57;72.09;99407.54;1731970;80;21039;-71
2022/02/09 11:31:15;;;;;;;12.37;4.43;;;;;;;4.71;70.84;99409.09;1747632;80;20979;-72
2022/02/09 11:34:01;;;;;;;10.70;3.22;;;;;;;4.76;70.70;99408.23;1756252;80;21064;-72
2022/02/09 11:36:38;;;;;;;20.52;6.78;;;;;;;4.90;70.10;99414.42;1747445;80;21082;-70
2022/02/09 11:39:15;;;;;;;25.77;7.03;;;;;;;4.99;69.77;99420.92;1759991;80;21001;-71
2022/02/09 11:41:37;;;;;;;17.45;6.15;;;;;;;5.11;69.58;99415.91;1757151;80;20992;-72
2022/02/09 11:44:17;;;;;;;23.22;5.53;;;;;;;5.23;68.90;99413.36;1763102;80;20905;-72
2022/02/09 11:47:16;;;;;;;9.25;3.25;;;;;;;5.30;68.46;99439.80;1766501;80;21102;-71
2022/02/09 11:50:08;;;;;;;15.93;4.17;;;;;;;5.26;67.33;99428.34;1771502;80;21091;-69
2022/02/09 11:52:38;;;;;;;18.75;6.25;;;;;;;5.13;67.12;99414.80;1765885;80;22378;-72
2022/02/09 12:09:42;;;;;;;16.57;4.33;;;;;;;4.65;67.53;99439.44;1774041;80;21538;-70
2022/02/09 12:12:14;;;;;;;11.95;3.37;;;;;;;4.69;67.27;99439.95;1771697;80;21091;-71
2022/02/09 12:14:59;;;;;;;14.03;3.00;;;;;;;4.71;66.89;99433.66;1769981;80;21051;-70
2022/02/09 12:20:17;;;;;;;14.78;3.77;;;;;;;4.61;66.67;99435.91;1755271;81;22284;-72
2022/02/09 12:22:45;;;;;;;10.53;2.77;;;;;;;4.60;66.84;99447.94;1739429;80;21489;-72
2022/02/09 12:25:09;;;;;;;8.23;2.65;;;;;;;4.65;66.70;99439.44;1770875;80;21052;-71
2022/02/09 12:27:35;;;;;;;10.05;3.37;;;;;;;4.64;66.79;99454.99;1770779;80;21160;-72
2022/02/09 12:30:10;;;;;;;8.63;3.52;;;;;;;4.63;66.84;99449.28;1770263;80;21035;-69
2022/02/09 12:32:42;;;;;;;13.83;4.37;;;;;;;4.63;67.30;99443.28;1722754;80;21052;-71
2022/02/09 12:35:12;;;;;;;9.48;3.05;;;;;;;4.73;67.50;99456.59;1771887;80;21024;-71
2022/02/09 12:37:44;;;;;;;7.25;2.30;;;;;;;4.83;67.13;99454.33;1770933;80;21075;-73
2022/02/09 12:40:23;;;;;;;10.53;2.77;;;;;;;4.89;66.44;99453.22;1771618;80;21132;-72
2022/02/09 12:42:52;;;;;;;13.55;2.72;;;;;;;5.00;66.56;99449.84;1775524;80;21080;-71
2022/02/09 12:45:21;;;;;;;14.80;3.08;;;;;;;5.08;65.51;99447.88;1763137;80;21425;-71
2022/02/09 12:47:56;;;;;;;10.32;3.30;;;;;;;5.11;65.83;99450.06;1778239;80;21060;-72
2022/02/09 12:50:27;;;;;;;14.03;5.40;;;;;;;5.19;65.21;99458.72;1763225;81;21481;-71
2022/02/09 12:52:56;;;;;;;8.33;3.15;;;;;;;5.21;65.07;99464.19;1772399;80;20936;-72
2022/02/09 12:55:30;;;;;;;10.75;2.40;;;;;;;5.25;63.71;99467.16;1741289;80;21008;-71
2022/02/09 12:58:01;;;;;;;;;;;;;;;5.21;63.77;99469.65;1773191;79;21058;-70
2022/02/09 13:00:43;;;;;;;12.63;3.35;;;;;;;5.21;63.85;99472.38;1730289;80;20186;-72
2022/02/09 13:03:16;;;;;;;15.43;3.67;;;;;;;5.17;63.65;99474.61;1769482;80;21488;-71
2022/02/09 13:06:00;;;;;;;11.45;3.42;;;;;;;5.15;63.99;99478.16;1772717;80;20973;-71
2022/02/09 13:08:29;;;;;;;9.68;3.72;;;;;;;5.18;64.23;99479.78;1766274;80;20952;-72
2022/02/09 13:11:17;;;;;;;10.18;4.20;;;;;;;5.23;63.40;99480.28;1770361;79;20932;-71
2022/02/09 13:13:38;;;;;;;12.68;3.80;;;;;;;5.20;63.58;99481.66;1755293;81;21043;-70
2022/02/09 13:18:54;;;;;;;6.53;2.58;;;;;;;5.15;63.07;99500.84;1771815;80;21495;-71
2022/02/09 14:07:28;;;;;;;12.63;3.05;;;;;;;5.34;61.44;99546.05;1766251;80;20168;-71
2022/02/09 14:15:16;;;;;;;12.70;4.15;;;;;;;4.77;63.18;99557.85;1772118;80;21027;-71
2022/02/09 14:53:09;;;;;;;15.70;4.28;;;;;;;4.22;64.72;99597.59;1704398;83;21093;-72
2022/02/09 14:55:42;;;;;;;15.20;4.83;;;;;;;4.05;65.29;99600.08;1710240;83;21079;-71
2022/02/09 14:58:06;;;;;;;14.15;4.17;;;;;;;3.88;65.72;99603.08;1707651;83;21621;-71
2022/02/09 15:00:33;;;;;;;10.18;3.77;;;;;;;3.73;66.21;99611.55;1709671;82;20936;-71
2022/02/09 15:03:06;;;;;;;11.53;3.72;;;;;;;3.58;66.62;99613.72;1702684;84;21480;-72
2022/02/09 15:06:07;;;;;;;10.10;4.17;;;;;;;3.51;66.95;99615.88;1702547;84;20988;-71
2022/02/09 15:08:18;;;;;;;16.20;4.83;;;;;;;3.43;67.28;99634.92;1699541;84;21452;-70
2022/02/09 15:16:32;;;;;;;15.45;5.53;;;;;;;3.18;68.48;99636.50;1716695;83;21022;-72
2022/02/09 15:24:15;;;;;;;13.68;4.42;;;;;;;2.91;70.05;99643.77;1717880;83;20986;-71
2022/02/09 15:26:49;;;;;;;20.12;5.83;;;;;;;2.86;70.25;99641.56;1717918;83;20906;-69
2022/02/09 15:29:19;;;;;;;15.78;5.10;;;;;;;2.81;70.57;99645.08;1718162;83;22072;-72
2022/02/09 15:32:03;;;;;;;18.60;5.70;;;;;;;2.78;70.74;99651.86;1718062;83;20970;-71
2022/02/09 15:34:32;;;;;;;23.00;8.63;;;;;;;2.71;71.13;99649.94;1701939;83;21876;-69
2022/02/09 15:39:50;;;;;;;18.50;6.70;;;;;;;2.65;71.72;99652.33;1703871;84;21015;-69
2022/02/09 15:42:27;;;;;;;21.05;6.47;;;;;;;2.62;71.86;99652.87;1704158;84;21003;-70
2022/02/09 16:10:20;;;;;;;30.40;11.12;;;;;;;2.28;73.89;99702.97;1717608;82;21051;-72
2022/02/09 16:21:40;;;;;;;33.02;13.78;;;;;;;2.10;74.89;99709.63;1667372;84;21053;-69
2022/02/09 16:23:44;;;;;;;26.90;11.85;;;;;;;2.08;74.98;99715.33;1651504;85;21052;-72
2022/02/09 16:33:12;;;;;;;33.83;12.47;;;;;;;2.04;75.11;99714.19;1677346;85;21555;-69
2022/02/09 16:35:03;;;;;;;39.63;15.35;;;;;;;1.96;75.64;99716.02;1679147;84;21603;-70
2022/02/09 16:45:18;;;;;;;26.48;10.85;;;;;;;1.98;76.14;99724.75;1665529;86;21023;-69
2022/02/09 16:48:03;;;;;;;28.67;12.82;;;;;;;1.99;76.27;99729.09;1665674;86;20971;-69
2022/02/09 16:50:40;;;;;;;28.15;11.90;;;;;;;2.02;76.35;99728.05;1664480;86;21068;-71
2022/02/09 17:18:57;;;;;;;31.80;12.20;;;;;;;2.12;76.92;99748.23;1722788;83;20976;-71
2022/02/09 17:21:28;;;;;;;29.65;10.72;;;;;;;2.12;76.84;99745.52;1722559;82;20941;-68
2022/02/09 17:24:06;;;;;;;30.55;10.82;;;;;;;2.15;76.74;99748.54;1713823;83;21234;-68
2022/02/09 17:26:33;;;;;;;23.98;10.35;;;;;;;2.16;76.69;99752.92;1713942;83;21522;-74
2022/02/09 17:29:03;;;;;;;24.57;9.43;;;;;;;2.16;76.54;99748.02;1714279;83;21413;-71
2022/02/09 17:56:48;;;;;;;30.92;10.48;;;;;;;2.20;75.25;99757.31;1661025;85;21436;-70
2022/02/09 17:59:14;;;;;;;24.67;10.00;;;;;;;2.17;75.22;99765.42;1685051;85;20965;-72
2022/02/09 18:01:40;;;;;;;31.60;11.45;;;;;;;2.16;75.15;99760.25;1688146;83;21038;-72
2022/02/09 18:04:15;;;;;;;25.32;7.95;;;;;;;2.16;75.19;99762.97;1684609;85;21808;-72
2022/02/09 18:06:48;;;;;;;24.00;9.85;;;;;;;2.15;75.11;99756.70;1686270;85;20884;-72
2022/02/09 18:09:28;;;;;;;25.88;8.25;;;;;;;2.16;75.03;99766.52;1685888;85;21007;-69
2022/02/09 18:12:03;;;;;;;24.98;9.63;;;;;;;2.16;74.84;99761.61;1685883;85;20995;-72
2022/02/09 18:43:54;;;;;;;22.50;9.23;;;;;;;1.80;74.30;99763.42;1691089;84;21068;-73
2022/02/09 18:46:26;;;;;;;22.70;9.08;;;;;;;1.76;74.34;99761.75;1689240;84;21088;-73
2022/02/09 18:59:59;;;;;;;31.17;12.95;;;;;;;1.60;74.65;99766.21;1661108;86;20998;-73
2022/02/09 19:02:34;;;;;;;37.20;17.75;;;;;;;1.53;74.58;99769.12;1674625;84;21056;-74
2022/02/09 19:04:50;;;;;;;41.37;19.10;;;;;;;1.49;74.72;99767.14;1688326;84;21028;-74
2022/02/09 19:27:04;;;;;;;110.75;37.88;;;;;;;1.20;75.93;99758.65;1703761;84;21483;-71
2022/02/09 19:29:53;;;;;;;106.67;37.85;;;;;;;1.17;76.04;99753.20;1702468;84;20857;-74
2022/02/09 19:45:48;;;;;;;55.73;21.93;;;;;;;0.94;76.31;99781.36;1704570;84;21491;-71
2022/02/09 19:51:11;;;;;;;64.87;17.92;;;;;;;0.83;76.57;99783.12;1704114;84;20983;-73
2022/02/09 19:53:39;;;;;;;43.15;15.75;;;;;;;0.81;76.78;99786.61;1701523;84;20965;-72
2022/02/09 19:56:04;;;;;;;32.88;12.37;;;;;;;0.78;77.00;99782.52;1702757;84;20992;-72
2022/02/09 19:58:39;;;;;;;29.23;10.88;;;;;;;0.77;77.19;99779.50;1703323;84;21000;-71
2022/02/09 20:00:58;;;;;;;30.40;9.40;;;;;;;0.77;77.40;99780.85;1682165;84;20976;-73
2022/02/09 20:03:25;;;;;;;24.35;10.75;;;;;;;0.78;77.49;99777.61;1703974;84;21550;-72
2022/02/09 20:05:57;;;;;;;25.77;11.28;;;;;;;0.78;77.58;99780.33;1703781;84;20893;-74
2022/02/09 20:08:23;;;;;;;37.85;13.75;;;;;;;0.79;77.61;99778.72;1703848;84;21035;-73
2022/02/09 20:10:54;;;;;;;36.60;14.00;;;;;;;0.81;77.82;99783.38;1704458;84;20999;-72
2022/02/09 20:13:23;;;;;;;41.23;15.05;;;;;;;0.85;77.91;99769.58;1704856;84;20940;-70
2022/02/09 20:15:52;;;;;;;39.63;13.83;;;;;;;0.87;77.96;99763.89;1704407;84;21090;-72
2022/02/09 20:18:19;;;;;;;35.58;14.25;;;;;;;0.90;77.98;99762.59;1704288;84;21000;-73
2022/02/09 20:20:49;;;;;;;36.00;13.13;;;;;;;0.93;78.01;99764.80;1704240;83;20980;-73
2022/02/09 20:23:22;;;;;;;32.63;13.35;;;;;;;0.93;77.97;99760.73;1704245;84;20917;-73
2022/02/09 20:25:51;;;;;;;34.43;13.28;;;;;;;0.92;78.05;99751.77;1704187;84;20968;-71
2022/02/09 20:28:23;;;;;;;41.08;13.55;;;;;;;0.92;78.16;99744.17;1704229;84;20929;-70
2022/02/09 20:31:05;;;;;;;34.15;12.93;;;;;;;0.93;78.39;99746.64;1704380;84;21569;-71
2022/02/09 20:33:35;;;;;;;30.97;13.40;;;;;;;0.96;78.51;99743.42;1701642;83;20988;-71
2022/02/09 20:35:59;;;;;;;38.87;13.67;;;;;;;0.97;78.58;99738.27;1703628;84;21004;-74
2022/02/09 20:38:35;;;;;;;31.95;12.43;;;;;;;1.00;78.70;99742.91;1701185;84;21495;-74
2022/02/09 20:41:06;;;;;;;;;;;;;;;1.00;78.82;99739.67;1706675;84;21141;-72
2022/02/09 20:43:33;;;;;;;29.27;12.07;;;;;;;1.03;78.92;99739.16;1704282;84;20428;-73
2022/02/09 20:46:06;;;;;;;28.85;11.75;;;;;;;1.05;79.03;99747.05;1704366;84;21484;-72
2022/02/09 20:48:37;;;;;;;28.87;10.70;;;;;;;1.06;79.19;99741.37;1704114;84;20953;-71
2022/02/09 20:51:04;;;;;;;26.23;9.48;;;;;;;1.09;79.31;99735.44;1704150;84;21032;-73
2022/02/09 20:53:32;;;;;;;29.67;9.55;;;;;;;1.12;79.44;99738.20;1704366;82;21785;-72
2022/02/09 20:56:05;;;;;;;27.65;10.18;;;;;;;1.14;79.46;99740.66;1704300;84;21453;-74
2022/02/09 20:58:35;;;;;;;19.50;10.40;;;;;;;1.15;79.50;99734.98;1703986;84;21023;-71
2022/02/09 21:01:11;;;;;;;28.50;10.23;;;;;;;1.17;79.59;99736.91;1704174;84;20955;-72
2022/02/09 21:06:24;;;;;;;22.98;8.55;;;;;;;1.22;79.73;99736.14;1703859;82;21425;-75
2022/02/09 21:11:20;;;;;;;20.57;8.23;;;;;;;1.25;79.72;99750.57;1704016;84;21456;-71
2022/02/09 21:13:55;;;;;;;27.90;8.63;;;;;;;1.25;79.78;99753.81;1703398;84;20948;-73
2022/02/09 21:19:30;;;;;;;32.17;9.28;;;;;;;1.26;79.92;99745.44;1703824;84;21056;-69
2022/02/09 21:57:10;;;;;;;31.62;12.07;;;;;;;1.15;80.95;99730.08;1703929;84;20904;-72
2022/02/09 22:16:30;;;;;;;24.55;10.58;;;;;;;1.24;82.47;99714.17;1703084;84;20983;-74
2022/02/09 22:29:47;;;;;;;26.12;9.68;;;;;;;1.36;83.44;99718.95;1692456;84;20981;-74
2022/02/09 22:32:29;;;;;;;26.62;9.40;;;;;;;1.37;83.52;99712.95;1687622;84;21032;-74
2022/02/09 22:45:55;;;;;;;29.45;10.68;;;;;;;1.53;84.72;99704.45;1670647;84;20996;-74
2022/02/09 22:50:52;;;;;;;31.65;10.23;;;;;;;1.53;85.23;99699.02;1692748;84;20948;-73
2022/02/09 22:55:58;;;;;;;22.17;8.95;;;;;;;1.54;85.95;99696.58;1692799;84;21008;-72
2022/02/09 22:58:25;;;;;;;20.27;8.85;;;;;;;1.54;86.39;99689.26;1692546;84;21060;-72
2022/02/09 23:01:59;;;;;;;21.40;9.28;;;;;;;1.56;86.80;99692.55;1692842;84;21493;-75
